CheckWX is a tool to help pilots better visualize weather data.  It is not intended as a substitute for an official pre-flight weather briefing.

13:22:39 UTC

KMMV METAR
Mc Minnville Municipal Airport
Mc Minnville, Oregon, USA
Current

30 mins ago

KMMV 211253Z AUTO 00000KT 10SM OVC035 12/11 A3015 RMK AO2 SLP209 T01220111
Observed
Sep-21 @ 12:53 UTC
Visibility
10 SM
Flight Rules
VFR
Cloud Levels
  • Overcast at 3,500' AGL
Temperature
12°C / 54°F
Dewpoint
11°C / 52°F
Humidity
94%
Altimeter
30.15" Hg
Pressure
1021.02 hPa
Previous

1 hour ago

KMMV 211153Z AUTO 00000KT 10SM OVC036 12/12 A3016 RMK AO2 SLP210 T01220117 10150 20111 56003
Observed
Sep-21 @ 11:53 UTC
Visibility
10 SM
Flight Rules
VFR
Cloud Levels
  • Overcast at 3,600' AGL
Temperature
12°C / 54°F
Dewpoint
12°C / 54°F
Humidity
100%
Altimeter
30.16" Hg
Pressure
1021.32 hPa
Previous

2 hours ago

KMMV 211053Z AUTO 31003KT 10SM SCT035 12/12 A3016 RMK AO2 SLP211 T01220117
Observed
Sep-21 @ 10:53 UTC
Wind
  • 310° at 3 KTS
Visibility
10 SM
Flight Rules
VFR
Cloud Levels
  • Scattered at 3,500' AGL
Temperature
12°C / 54°F
Dewpoint
12°C / 54°F
Humidity
100%
Altimeter
30.16" Hg
Pressure
1021.32 hPa